Time;durP1;ratioP1;P1;durP2;ratioP2;P2;SDS_P1;SDS_P2;PMS_P1;PMS_P2;Temp;Humidity;BMP_temperature;BMP_pressure;BME280_temperature;BME280_humidity;BME280_pressure;Samples;Min_cycle;Max_cycle;Signal;HPM_P1;HPM_P2
2022/09/29 00:01:52;;;;;;;5.57;4.40;;;13.10;92.20;;;;;;5037482;28;20238;-60
2022/09/29 00:04:18;;;;;;;9.50;4.70;;;13.00;92.20;;;;;;4981417;28;20244;-60
2022/09/29 00:06:44;;;;;;;4.70;4.20;;;13.00;92.20;;;;;;5021499;28;20200;-57
2022/09/29 00:09:10;;;;;;;7.43;5.20;;;13.00;92.40;;;;;;4975361;28;20256;-58
2022/09/29 00:11:36;;;;;;;5.70;4.17;;;13.00;92.50;;;;;;4983146;28;20185;-58
2022/09/29 00:14:01;;;;;;;7.00;4.60;;;13.00;92.60;;;;;;4969060;28;20208;-58
2022/09/29 00:16:28;;;;;;;5.30;4.50;;;12.90;92.70;;;;;;4973642;28;20194;-58
2022/09/29 00:18:54;;;;;;;5.70;4.17;;;13.00;92.80;;;;;;4980387;28;20189;-58
2022/09/29 00:21:21;;;;;;;8.63;4.57;;;12.90;92.70;;;;;;4984467;28;20272;-58
2022/09/29 00:23:48;;;;;;;5.70;5.10;;;12.90;92.80;;;;;;4978090;28;20269;-58
2022/09/29 00:26:20;;;;;;;5.27;4.77;;;12.90;92.90;;;;;;5013181;28;20205;-58
2022/09/29 00:28:57;;;;;;;11.03;6.77;;;12.90;93.00;;;;;;4978574;28;20189;-58
2022/09/29 00:31:24;;;;;;;5.60;5.10;;;12.90;92.90;;;;;;5020768;28;20181;-58
2022/09/29 00:33:50;;;;;;;7.03;4.73;;;12.90;92.90;;;;;;4977460;28;20214;-58
2022/09/29 00:36:18;;;;;;;5.83;5.23;;;12.90;93.00;;;;;;5027173;28;20326;-58
2022/09/29 00:38:47;;;;;;;6.43;5.20;;;13.00;93.00;;;;;;5007651;28;20197;-58
2022/09/29 00:41:16;;;;;;;7.77;4.63;;;13.00;93.00;;;;;;4986567;28;20219;-59
2022/09/29 00:43:59;;;;;;;6.73;4.77;;;12.90;93.00;;;;;;4977272;28;20197;-59
2022/09/29 00:46:27;;;;;;;6.30;5.13;;;12.90;92.90;;;;;;4994074;28;20189;-59
2022/09/29 00:48:58;;;;;;;5.43;4.80;;;13.00;93.00;;;;;;4985808;28;20200;-59
2022/09/29 00:51:25;;;;;;;7.13;5.57;;;13.00;93.00;;;;;;4977702;28;20185;-59
2022/09/29 00:53:51;;;;;;;8.57;5.20;;;13.00;93.00;;;;;;4990969;28;20217;-59
2022/09/29 00:56:17;;;;;;;8.83;4.90;;;13.00;93.00;;;;;;5011267;28;20256;-59
2022/09/29 00:58:53;;;;;;;5.33;4.40;;;13.00;93.00;;;;;;4983151;28;20312;-59
2022/09/29 01:01:21;;;;;;;5.33;4.80;;;13.00;93.00;;;;;;4980289;28;20177;-58
2022/09/29 01:03:50;;;;;;;6.23;4.67;;;13.00;93.00;;;;;;4980992;28;20187;-58
2022/09/29 01:06:23;;;;;;;6.60;4.80;;;13.00;93.00;;;;;;4991525;28;20266;-58
2022/09/29 01:09:01;;;;;;;7.80;5.30;;;13.00;93.00;;;;;;4989018;28;20212;-58
2022/09/29 01:11:28;;;;;;;7.57;5.97;;;13.00;93.30;;;;;;4974881;28;20268;-58
2022/09/29 01:13:57;;;;;;;13.90;6.57;;;13.00;93.60;;;;;;4988132;28;20359;-58
2022/09/29 01:16:23;;;;;;;8.97;6.03;;;12.90;94.00;;;;;;4980068;28;20204;-58
2022/09/29 01:18:51;;;;;;;7.70;7.00;;;12.80;94.20;;;;;;5004004;28;20191;-58
2022/09/29 01:21:24;;;;;;;9.53;6.47;;;12.80;94.30;;;;;;4980657;28;20191;-58
2022/09/29 01:23:50;;;;;;;8.60;6.77;;;12.80;94.50;;;;;;5015399;28;20187;-58
2022/09/29 01:26:32;;;;;;;7.33;6.63;;;12.80;94.60;;;;;;5022688;28;20184;-58
2022/09/29 01:29:35;;;;;;;7.87;6.53;;;12.80;94.60;;;;;;5017759;28;20184;-58
2022/09/29 01:32:09;;;;;;;7.77;6.97;;;12.80;94.70;;;;;;5012026;28;20187;-58
2022/09/29 01:34:53;;;;;;;8.67;7.00;;;12.70;94.70;;;;;;5016430;28;20223;-58
2022/09/29 01:37:21;;;;;;;7.87;6.10;;;12.70;94.70;;;;;;4979129;28;20188;-58
2022/09/29 01:39:50;;;;;;;7.53;6.47;;;12.60;94.70;;;;;;5016027;28;20192;-58
2022/09/29 01:42:24;;;;;;;7.73;6.93;;;12.60;94.80;;;;;;4978057;28;20184;-59
2022/09/29 01:45:03;;;;;;;10.67;6.23;;;12.60;94.90;;;;;;4987689;28;20219;-59
2022/09/29 01:47:37;;;;;;;6.43;5.60;;;12.60;94.90;;;;;;4987332;28;20195;-59
2022/09/29 01:50:12;;;;;;;6.57;5.70;;;12.60;94.90;;;;;;4985151;28;20262;-59
2022/09/29 01:52:48;;;;;;;5.70;4.80;;;12.60;94.90;;;;;;5018865;28;20188;-59
2022/09/29 01:55:20;;;;;;;6.60;5.10;;;12.60;94.80;;;;;;4983672;28;20216;-59
2022/09/29 01:58:12;;;;;;;6.13;4.67;;;12.50;94.60;;;;;;4977756;28;20232;-59
2022/09/29 02:00:49;;;;;;;5.13;4.50;;;12.50;94.70;;;;;;4985619;28;20197;-59
2022/09/29 02:03:34;;;;;;;5.40;4.53;;;12.50;94.70;;;;;;4992399;28;20184;-59
2022/09/29 02:06:05;;;;;;;5.17;4.20;;;12.50;94.60;;;;;;4978861;28;20193;-59
2022/09/29 02:08:53;;;;;;;5.50;4.03;;;12.50;94.60;;;;;;4973706;28;20185;-59
2022/09/29 02:11:19;;;;;;;3.77;3.37;;;12.40;94.40;;;;;;4975866;28;20264;-59
2022/09/29 02:13:50;;;;;;;5.17;2.90;;;12.30;94.30;;;;;;4993610;28;20193;-58
2022/09/29 02:16:20;;;;;;;4.13;3.00;;;12.20;93.80;;;;;;5017848;28;20205;-58
2022/09/29 02:19:03;;;;;;;5.20;3.23;;;12.20;94.10;;;;;;4980498;28;20190;-58
2022/09/29 02:21:29;;;;;;;3.87;2.93;;;12.20;94.20;;;;;;5013904;28;20185;-58
2022/09/29 02:23:55;;;;;;;4.90;3.30;;;12.10;93.80;;;;;;4996429;28;20197;-58
2022/09/29 02:26:24;;;;;;;5.93;3.37;;;12.00;94.20;;;;;;5000845;28;20207;-59
2022/09/29 02:28:51;;;;;;;5.93;4.07;;;12.00;95.10;;;;;;5020410;28;20193;-59
2022/09/29 02:31:17;;;;;;;8.83;3.80;;;11.90;95.80;;;;;;5015060;28;20198;-59
2022/09/29 02:33:43;;;;;;;4.80;3.73;;;11.90;96.10;;;;;;4980766;28;20204;-59
2022/09/29 02:36:18;;;;;;;3.80;3.43;;;11.80;96.40;;;;;;4978503;28;20232;-59
2022/09/29 02:38:56;;;;;;;4.83;3.20;;;11.80;96.60;;;;;;5026609;28;20191;-59
2022/09/29 02:41:52;;;;;;;5.23;3.17;;;11.80;96.70;;;;;;4978174;28;20192;-59
2022/09/29 02:44:24;;;;;;;3.63;3.30;;;11.80;96.80;;;;;;5022760;28;20188;-59
2022/09/29 02:47:07;;;;;;;4.27;2.13;;;11.80;96.80;;;;;;5029391;28;20255;-59
2022/09/29 02:49:53;;;;;;;3.00;2.70;;;11.80;96.80;;;;;;4979174;28;20213;-59
2022/09/29 02:52:30;;;;;;;2.97;2.47;;;11.60;96.90;;;;;;5020013;28;20200;-59
2022/09/29 02:55:08;;;;;;;6.07;2.40;;;11.70;96.90;;;;;;4980648;28;20212;-59
2022/09/29 02:57:36;;;;;;;3.40;2.10;;;11.50;96.80;;;;;;4984746;28;20191;-59
2022/09/29 03:00:09;;;;;;;4.90;2.20;;;11.30;96.70;;;;;;5016991;28;20192;-59
2022/09/29 03:02:37;;;;;;;4.00;2.20;;;11.20;96.70;;;;;;4983014;28;20189;-59
2022/09/29 03:05:04;;;;;;;3.60;2.33;;;11.20;96.60;;;;;;4983422;28;20200;-59
2022/09/29 03:07:30;;;;;;;5.43;2.57;;;11.30;96.70;;;;;;4988406;28;20208;-58
2022/09/29 03:09:56;;;;;;;3.10;2.40;;;11.40;96.70;;;;;;4997008;28;20200;-58
2022/09/29 03:12:22;;;;;;;1.80;1.70;;;11.40;96.70;;;;;;4979934;28;20211;-58
2022/09/29 03:14:47;;;;;;;4.40;2.03;;;11.30;96.60;;;;;;4993142;28;20221;-58
2022/09/29 03:17:13;;;;;;;2.97;2.03;;;11.20;96.50;;;;;;4997577;28;20192;-58
2022/09/29 03:19:39;;;;;;;2.77;1.70;;;11.30;96.50;;;;;;4991049;28;20247;-59
2022/09/29 03:22:04;;;;;;;1.60;1.50;;;11.30;96.50;;;;;;4984183;28;20212;-59
2022/09/29 03:24:30;;;;;;;3.83;1.60;;;11.40;96.50;;;;;;4978944;28;20204;-59
2022/09/29 03:26:56;;;;;;;2.37;1.60;;;11.40;96.50;;;;;;5008859;28;20277;-59
2022/09/29 03:29:22;;;;;;;2.83;1.30;;;11.50;96.60;;;;;;4978707;28;20204;-59
2022/09/29 03:31:48;;;;;;;1.30;1.20;;;11.50;96.60;;;;;;4999912;28;20206;-59
2022/09/29 03:34:14;;;;;;;1.60;0.87;;;11.40;96.50;;;;;;5005170;28;20216;-59
2022/09/29 03:36:40;;;;;;;1.87;0.97;;;11.40;96.50;;;;;;5032964;28;20204;-59
2022/09/29 03:39:06;;;;;;;3.20;1.20;;;11.40;96.50;;;;;;4986402;28;20201;-59
2022/09/29 03:41:32;;;;;;;2.63;0.97;;;11.40;96.60;;;;;;4983993;28;20201;-59
2022/09/29 03:43:58;;;;;;;0.80;0.80;;;11.40;96.50;;;;;;4987582;28;20207;-59
2022/09/29 03:46:23;;;;;;;0.97;0.83;;;11.30;96.40;;;;;;4990986;28;20192;-58
2022/09/29 03:48:49;;;;;;;0.97;0.87;;;11.30;96.30;;;;;;4980034;28;20256;-59
2022/09/29 03:51:15;;;;;;;0.60;0.60;;;11.30;96.30;;;;;;4967148;28;20196;-57
2022/09/29 03:53:40;;;;;;;0.80;0.80;;;11.10;96.00;;;;;;4983888;28;20193;-59
2022/09/29 03:56:06;;;;;;;0.90;0.83;;;11.10;96.10;;;;;;4970007;28;20201;-59
2022/09/29 03:58:32;;;;;;;3.03;2.10;;;11.10;96.10;;;;;;5002026;28;20212;-59
2022/09/29 04:00:58;;;;;;;7.03;1.37;;;11.00;96.10;;;;;;4977589;28;20196;-59
2022/09/29 04:03:24;;;;;;;3.67;1.03;;;11.10;96.10;;;;;;4980656;28;20196;-59
2022/09/29 04:05:50;;;;;;;1.43;0.90;;;11.10;96.20;;;;;;4993675;28;20201;-59
2022/09/29 04:08:16;;;;;;;1.20;1.10;;;11.10;96.30;;;;;;5018362;28;20235;-59
2022/09/29 04:10:42;;;;;;;1.27;1.07;;;11.10;96.40;;;;;;4969653;28;20201;-59
2022/09/29 04:13:08;;;;;;;0.83;0.80;;;11.20;96.40;;;;;;4993253;28;20193;-59
2022/09/29 04:15:34;;;;;;;1.20;1.10;;;11.20;96.40;;;;;;4973785;28;20307;-60
2022/09/29 04:18:00;;;;;;;1.00;0.90;;;11.10;96.40;;;;;;4979262;28;20193;-60
2022/09/29 04:20:26;;;;;;;2.77;1.00;;;11.00;96.30;;;;;;4978453;28;20189;-59
2022/09/29 04:22:52;;;;;;;1.10;1.00;;;10.90;96.30;;;;;;4982321;28;20197;-59
2022/09/29 04:25:18;;;;;;;0.60;0.60;;;10.90;96.40;;;;;;4993649;28;20196;-60
2022/09/29 04:27:43;;;;;;;0.60;0.60;;;10.90;96.20;;;;;;4987191;28;20204;-53
2022/09/29 04:30:10;;;;;;;1.17;1.00;;;10.80;96.20;;;;;;4995607;28;20189;-53
2022/09/29 04:32:36;;;;;;;1.07;0.90;;;10.80;96.20;;;;;;4975489;28;20203;-54
2022/09/29 04:35:02;;;;;;;2.83;1.00;;;10.70;96.20;;;;;;5019427;28;20236;-55
2022/09/29 04:37:27;;;;;;;0.87;0.80;;;10.70;96.20;;;;;;4973545;28;20212;-55
2022/09/29 04:39:53;;;;;;;0.70;0.70;;;10.70;96.20;;;;;;4973607;28;20189;-53
2022/09/29 04:42:20;;;;;;;1.37;1.27;;;10.80;96.40;;;;;;4975116;28;20276;-54
2022/09/29 04:44:46;;;;;;;3.00;1.20;;;10.80;96.40;;;;;;4971976;28;20262;-55
2022/09/29 04:47:12;;;;;;;4.70;1.30;;;11.00;96.50;;;;;;4985595;28;20220;-59
2022/09/29 04:49:38;;;;;;;1.67;1.43;;;11.00;96.50;;;;;;5014816;28;20189;-51
2022/09/29 04:52:04;;;;;;;1.07;0.90;;;11.00;96.50;;;;;;4992142;28;20204;-54
2022/09/29 04:54:33;;;;;;;2.30;1.20;;;11.00;96.50;;;;;;4991075;28;20216;-55
2022/09/29 04:57:00;;;;;;;1.07;1.00;;;10.90;96.40;;;;;;5010556;28;20184;-54
2022/09/29 04:59:26;;;;;;;1.27;1.17;;;10.80;96.30;;;;;;4967828;28;20189;-56
2022/09/29 05:01:52;;;;;;;0.93;0.83;;;10.80;96.30;;;;;;4984953;28;20195;-55
2022/09/29 05:04:18;;;;;;;0.90;0.77;;;10.80;96.30;;;;;;4987658;28;20197;-54
2022/09/29 05:06:44;;;;;;;0.80;0.80;;;10.90;96.40;;;;;;4994082;28;20201;-51
2022/09/29 05:09:10;;;;;;;1.03;1.00;;;10.80;96.30;;;;;;4994854;28;20243;-59
2022/09/29 05:11:36;;;;;;;2.70;1.10;;;10.80;96.30;;;;;;4977118;28;20244;-57
2022/09/29 05:14:02;;;;;;;1.37;1.20;;;10.80;96.30;;;;;;4978942;28;20293;-54
2022/09/29 05:16:28;;;;;;;1.27;1.10;;;10.90;96.40;;;;;;4999096;28;20185;-57
2022/09/29 05:18:53;;;;;;;0.87;0.87;;;10.80;96.30;;;;;;4980220;28;20189;-59
2022/09/29 05:21:19;;;;;;;1.27;1.07;;;10.90;96.40;;;;;;4974499;28;20271;-54
2022/09/29 05:23:45;;;;;;;3.53;1.23;;;10.80;96.30;;;;;;5018359;28;20195;-56
2022/09/29 05:26:12;;;;;;;1.83;1.00;;;10.90;96.40;;;;;;4972425;28;20224;-56
2022/09/29 05:28:42;;;;;;;1.00;0.90;;;10.80;96.70;;;;;;4986310;28;20193;-56
2022/09/29 05:31:08;;;;;;;0.97;0.70;;;10.70;96.90;;;;;;4979664;28;20193;-58
2022/09/29 05:33:35;;;;;;;5.87;1.33;;;10.70;97.00;;;;;;5030513;28;20288;-57
2022/09/29 05:36:05;;;;;;;1.87;1.10;;;10.70;97.10;;;;;;4987785;28;20276;-58
2022/09/29 05:38:31;;;;;;;3.23;1.10;;;10.80;97.10;;;;;;4996094;28;20207;-57
2022/09/29 05:40:57;;;;;;;4.93;1.40;;;10.80;97.20;;;;;;4977310;28;20287;-57
2022/09/29 05:43:24;;;;;;;1.73;1.20;;;10.80;97.30;;;;;;4990434;28;20193;-58
2022/09/29 05:45:50;;;;;;;6.87;1.27;;;10.60;97.40;;;;;;4973635;28;20201;-57
2022/09/29 05:48:17;;;;;;;1.70;1.03;;;10.60;97.50;;;;;;4973939;28;20255;-57
2022/09/29 05:50:42;;;;;;;3.20;1.30;;;10.40;97.50;;;;;;5008648;28;20204;-56
2022/09/29 05:53:11;;;;;;;1.10;1.00;;;10.50;97.60;;;;;;4981451;28;20201;-57
2022/09/29 05:55:37;;;;;;;1.50;1.40;;;10.60;97.60;;;;;;4975932;28;20224;-57
2022/09/29 05:58:04;;;;;;;1.43;1.27;;;10.50;97.60;;;;;;5003889;28;20200;-57
2022/09/29 06:00:30;;;;;;;1.00;0.90;;;10.50;97.60;;;;;;4978403;28;20185;-55
2022/09/29 06:02:59;;;;;;;1.47;0.87;;;10.60;97.70;;;;;;4985980;28;20197;-57
2022/09/29 06:05:26;;;;;;;1.33;0.60;;;10.60;97.70;;;;;;4978796;28;20200;-57
2022/09/29 06:07:52;;;;;;;3.27;1.17;;;10.70;97.70;;;;;;4989888;28;20288;-58
2022/09/29 06:10:18;;;;;;;5.50;1.10;;;10.80;97.70;;;;;;4992045;28;20440;-58
2022/09/29 06:12:44;;;;;;;1.87;0.80;;;10.70;97.70;;;;;;4983668;28;20197;-57
2022/09/29 06:15:10;;;;;;;0.80;0.80;;;10.80;97.70;;;;;;5012614;28;20249;-58
2022/09/29 06:17:36;;;;;;;4.00;1.07;;;10.80;97.80;;;;;;5038847;28;20204;-57
2022/09/29 06:20:03;;;;;;;2.43;1.33;;;10.90;97.80;;;;;;4990539;28;20243;-57
2022/09/29 06:22:29;;;;;;;1.93;1.10;;;11.00;97.80;;;;;;4990863;28;20250;-58
2022/09/29 06:24:55;;;;;;;0.70;0.70;;;11.00;97.80;;;;;;4976241;28;20200;-57
2022/09/29 06:27:21;;;;;;;6.23;1.00;;;11.00;97.80;;;;;;4992337;28;20203;-58
2022/09/29 06:29:46;;;;;;;5.10;1.73;;;11.00;97.80;;;;;;4990909;28;20279;-58
2022/09/29 06:32:12;;;;;;;2.80;1.47;;;11.00;97.80;;;;;;5039188;28;20205;-56
2022/09/29 06:37:33;;;;;;;3.67;1.13;;;11.00;97.80;;;;;;4971704;28;20248;-53
2022/09/29 06:37:33;;;;;;;16.07;3.17;;;10.90;97.80;;;;;;5004534;28;20177;-58
2022/09/29 06:40:00;;;;;;;17.73;3.50;;;11.00;97.80;;;;;;5002408;28;20192;-58
2022/09/29 06:42:26;;;;;;;13.47;2.90;;;11.00;97.80;;;;;;5027448;28;20185;-55
2022/09/29 06:44:53;;;;;;;4.73;1.73;;;10.90;97.80;;;;;;4984114;28;20328;-57
2022/09/29 06:47:19;;;;;;;13.30;3.03;;;10.80;97.80;;;;;;4961752;28;20193;-58
2022/09/29 06:49:45;;;;;;;28.60;5.90;;;10.70;97.80;;;;;;4969438;28;20200;-58
2022/09/29 06:52:10;;;;;;;4.80;1.53;;;10.70;97.90;;;;;;4991102;28;20255;-58
2022/09/29 06:54:36;;;;;;;6.17;1.40;;;10.70;98.00;;;;;;5008228;28;20219;-56
2022/09/29 06:57:02;;;;;;;1.60;1.00;;;10.60;98.00;;;;;;5018075;28;20254;-58
2022/09/29 06:59:27;;;;;;;3.93;1.57;;;10.60;98.00;;;;;;4983152;28;20200;-58
2022/09/29 07:01:53;;;;;;;6.63;1.73;;;10.70;98.00;;;;;;4992566;28;20191;-57
2022/09/29 07:04:20;;;;;;;6.80;1.60;;;10.80;98.00;;;;;;4991026;28;20546;-58
2022/09/29 07:06:45;;;;;;;2.80;1.33;;;10.80;98.00;;;;;;4994160;28;20200;-57
2022/09/29 07:09:14;;;;;;;2.50;1.00;;;10.80;98.00;;;;;;4983362;28;20189;-56
2022/09/29 07:11:45;;;;;;;1.40;1.20;;;10.80;98.10;;;;;;4962958;28;20197;-57
2022/09/29 07:14:21;;;;;;;4.27;1.20;;;10.90;98.10;;;;;;4994850;28;20208;-57
2022/09/29 07:16:47;;;;;;;3.67;1.00;;;10.90;98.00;;;;;;4989618;28;20199;-57
2022/09/29 07:19:14;;;;;;;3.87;2.80;;;10.90;98.00;;;;;;4978008;28;20220;-55
2022/09/29 07:21:39;;;;;;;1.50;1.23;;;10.80;98.10;;;;;;4984481;28;20189;-56
2022/09/29 07:24:05;;;;;;;2.40;1.20;;;10.80;98.10;;;;;;5008872;28;20501;-54
2022/09/29 07:26:31;;;;;;;1.23;0.93;;;10.80;98.10;;;;;;4980969;28;20196;-56
2022/09/29 07:28:57;;;;;;;1.27;1.10;;;10.80;98.00;;;;;;4966257;28;20194;-58
2022/09/29 07:31:23;;;;;;;1.00;0.90;;;10.90;98.00;;;;;;4999326;28;20197;-57
2022/09/29 07:33:49;;;;;;;1.60;1.10;;;10.90;98.10;;;;;;4988600;28;20211;-57
2022/09/29 07:36:17;;;;;;;2.17;1.43;;;11.00;98.10;;;;;;5015065;28;20236;-57
2022/09/29 07:38:47;;;;;;;4.33;1.50;;;11.00;98.00;;;;;;4989002;28;20181;-57
2022/09/29 07:41:13;;;;;;;1.53;1.00;;;11.00;98.00;;;;;;4998567;28;20185;-57
2022/09/29 07:43:39;;;;;;;1.50;1.00;;;11.10;98.00;;;;;;4997908;28;20195;-57
2022/09/29 07:46:06;;;;;;;0.80;0.70;;;11.20;98.00;;;;;;4964889;28;20197;-56
2022/09/29 07:48:32;;;;;;;0.70;0.70;;;11.10;98.00;;;;;;4992540;28;20207;-55
2022/09/29 07:51:03;;;;;;;0.83;0.80;;;11.00;98.10;;;;;;4949788;28;20201;-55
2022/09/29 07:53:30;;;;;;;1.87;1.30;;;11.10;98.10;;;;;;4991519;28;20188;-56
2022/09/29 07:56:02;;;;;;;3.50;1.53;;;11.10;98.10;;;;;;4973913;28;20254;-57
2022/09/29 07:58:28;;;;;;;2.30;1.40;;;11.10;98.00;;;;;;4979629;28;20188;-57
2022/09/29 08:00:55;;;;;;;1.30;1.00;;;11.20;98.10;;;;;;4999948;28;20197;-56
2022/09/29 08:03:20;;;;;;;1.20;1.10;;;11.20;98.10;;;;;;4983814;28;20244;-57
2022/09/29 08:05:46;;;;;;;1.30;1.10;;;10.80;98.00;;;;;;4967583;28;20209;-55
2022/09/29 08:08:12;;;;;;;2.10;1.30;;;10.90;98.10;;;;;;5013881;28;20189;-56
2022/09/29 08:10:38;;;;;;;1.53;1.10;;;10.70;98.10;;;;;;4965083;28;20203;-55
2022/09/29 08:13:03;;;;;;;1.87;1.27;;;10.70;98.10;;;;;;4976610;28;20288;-54
2022/09/29 08:15:29;;;;;;;2.00;1.30;;;10.70;98.10;;;;;;4968532;28;20221;-56
2022/09/29 08:17:55;;;;;;;1.70;1.20;;;10.80;98.10;;;;;;5016815;28;20283;-56
2022/09/29 08:20:22;;;;;;;2.80;1.47;;;11.00;98.10;;;;;;4993895;28;20284;-54
2022/09/29 08:22:48;;;;;;;2.10;1.40;;;11.10;98.10;;;;;;4984228;28;20196;-54
2022/09/29 08:25:15;;;;;;;1.93;1.30;;;11.10;98.10;;;;;;4983276;28;20197;-56
2022/09/29 08:27:41;;;;;;;1.53;1.10;;;11.10;98.10;;;;;;4974895;28;20283;-55
2022/09/29 08:30:09;;;;;;;1.60;1.40;;;11.10;98.10;;;;;;4999841;28;20196;-56
2022/09/29 08:32:35;;;;;;;1.97;1.53;;;11.00;98.10;;;;;;4967975;28;20232;-55
2022/09/29 08:35:01;;;;;;;3.10;1.47;;;11.00;98.10;;;;;;4979031;28;20259;-54
2022/09/29 08:37:26;;;;;;;1.80;1.40;;;10.90;98.10;;;;;;5023769;28;20220;-54
2022/09/29 08:39:52;;;;;;;2.83;1.57;;;11.00;98.10;;;;;;4979758;28;20189;-56
2022/09/29 08:42:37;;;;;;;2.00;1.80;;;11.00;98.10;;;;;;5018766;28;20231;-55
2022/09/29 08:45:13;;;;;;;2.63;1.90;;;11.00;98.10;;;;;;5011188;28;20188;-55
2022/09/29 08:47:42;;;;;;;2.00;1.80;;;10.90;98.10;;;;;;4978433;28;20196;-53
2022/09/29 08:50:27;;;;;;;1.60;1.50;;;11.00;98.10;;;;;;4989868;28;20192;-57
2022/09/29 08:52:57;;;;;;;1.60;1.50;;;11.00;98.10;;;;;;4986206;28;20196;-54
2022/09/29 08:55:34;;;;;;;2.60;2.30;;;11.00;98.10;;;;;;4980192;28;20303;-56
2022/09/29 08:58:01;;;;;;;3.47;2.60;;;10.90;98.10;;;;;;5019601;28;20192;-56
2022/09/29 09:00:50;;;;;;;3.00;2.70;;;10.80;98.10;;;;;;4975620;28;20197;-56
2022/09/29 09:03:42;;;;;;;3.80;2.07;;;10.80;98.10;;;;;;5015126;28;20217;-55
2022/09/29 09:06:22;;;;;;;2.57;2.37;;;10.90;98.10;;;;;;5006924;28;20211;-54
2022/09/29 09:08:59;;;;;;;2.60;2.07;;;10.90;98.10;;;;;;4988971;28;20193;-55
2022/09/29 09:11:47;;;;;;;2.23;1.90;;;10.90;98.10;;;;;;4986066;28;20199;-55
2022/09/29 09:14:41;;;;;;;2.50;2.30;;;11.00;98.10;;;;;;5006456;28;20315;-56
2022/09/29 09:17:48;;;;;;;1.70;1.60;;;10.90;98.10;;;;;;5004611;28;20217;-56
2022/09/29 09:20:26;;;;;;;1.77;1.60;;;10.70;98.10;;;;;;4987360;28;20204;-56
2022/09/29 09:22:56;;;;;;;2.17;1.97;;;10.90;98.10;;;;;;5009563;28;20193;-52
2022/09/29 09:25:40;;;;;;;3.00;1.67;;;10.90;98.10;;;;;;5011519;28;20199;-55
2022/09/29 09:28:17;;;;;;;1.60;1.50;;;11.00;98.10;;;;;;4995481;28;20200;-55
2022/09/29 09:30:46;;;;;;;2.30;1.60;;;11.10;98.10;;;;;;5021594;28;20188;-55
2022/09/29 09:33:22;;;;;;;2.40;2.10;;;11.20;98.10;;;;;;4991735;28;20196;-56
2022/09/29 09:35:55;;;;;;;2.57;2.17;;;11.20;98.10;;;;;;5009819;28;20273;-55
2022/09/29 09:38:27;;;;;;;2.07;1.97;;;11.20;98.10;;;;;;4986426;28;20192;-56
2022/09/29 09:40:56;;;;;;;2.03;1.83;;;11.30;98.10;;;;;;4994024;28;20263;-56
2022/09/29 09:43:39;;;;;;;2.10;1.90;;;11.30;98.10;;;;;;4990978;28;20185;-55
2022/09/29 09:46:22;;;;;;;1.60;1.50;;;11.30;98.10;;;;;;4978614;28;20200;-57
2022/09/29 09:49:21;;;;;;;2.13;1.33;;;11.30;98.10;;;;;;5021802;28;20239;-56
2022/09/29 09:52:08;;;;;;;4.33;2.00;;;11.30;98.10;;;;;;4988438;28;20213;-57
2022/09/29 09:54:38;;;;;;;1.60;1.50;;;11.30;98.10;;;;;;4982766;28;20212;-54
2022/09/29 09:57:16;;;;;;;1.77;1.67;;;11.30;98.10;;;;;;4979622;28;20193;-53
2022/09/29 10:00:15;;;;;;;1.70;1.60;;;11.30;98.10;;;;;;5026583;28;20211;-55
2022/09/29 10:02:44;;;;;;;1.97;1.87;;;11.30;98.10;;;;;;4982869;28;20300;-56
2022/09/29 10:05:15;;;;;;;2.10;1.90;;;11.30;98.10;;;;;;5015296;28;20228;-56
2022/09/29 10:07:41;;;;;;;1.63;1.53;;;10.90;98.10;;;;;;4979157;28;20201;-57
2022/09/29 10:10:18;;;;;;;3.43;1.83;;;11.00;98.10;;;;;;4993403;28;20208;-56
2022/09/29 10:12:44;;;;;;;2.40;2.20;;;10.90;98.10;;;;;;4985388;28;20271;-56
2022/09/29 10:15:24;;;;;;;2.50;2.30;;;10.80;98.10;;;;;;5029223;28;20229;-56
2022/09/29 10:18:02;;;;;;;2.33;2.13;;;10.90;98.10;;;;;;4989332;28;20208;-56
2022/09/29 10:20:32;;;;;;;2.47;2.27;;;10.90;98.10;;;;;;4979099;28;20256;-52
2022/09/29 10:23:27;;;;;;;2.83;2.60;;;10.60;98.00;;;;;;4985776;28;20193;-57
2022/09/29 10:26:31;;;;;;;2.73;2.47;;;10.80;98.10;;;;;;4987482;28;20208;-58
2022/09/29 10:29:02;;;;;;;4.57;2.77;;;10.80;98.00;;;;;;5014076;28;20279;-56
2022/09/29 10:31:29;;;;;;;4.03;2.30;;;10.80;98.00;;;;;;4975375;28;20219;-56
2022/09/29 10:34:08;;;;;;;3.07;2.77;;;10.80;98.00;;;;;;5011561;28;20335;-54
2022/09/29 10:36:48;;;;;;;4.60;2.33;;;10.80;98.00;;;;;;4963350;28;20205;-57
2022/09/29 10:39:38;;;;;;;3.13;2.83;;;10.90;98.00;;;;;;4988919;28;20182;-56
2022/09/29 10:42:22;;;;;;;4.63;2.83;;;11.00;98.00;;;;;;4964044;28;20185;-55
2022/09/29 10:44:59;;;;;;;3.43;3.13;;;10.90;98.00;;;;;;4970620;28;20228;-57
2022/09/29 10:47:25;;;;;;;3.40;3.10;;;10.90;98.00;;;;;;4964794;28;20194;-56
2022/09/29 10:50:19;;;;;;;4.07;3.50;;;10.80;98.00;;;;;;4974467;28;20252;-56
2022/09/29 10:53:26;;;;;;;3.00;2.80;;;10.90;98.00;;;;;;4972969;28;20236;-56
2022/09/29 10:55:55;;;;;;;3.47;3.17;;;10.80;98.00;;;;;;4971602;28;20225;-56
2022/09/29 10:58:23;;;;;;;3.10;2.80;;;10.90;98.00;;;;;;4974019;28;20186;-55
2022/09/29 11:01:08;;;;;;;3.27;2.87;;;10.80;97.90;;;;;;5003728;28;20193;-54
2022/09/29 11:03:38;;;;;;;4.63;3.17;;;10.70;97.90;;;;;;4961043;28;20201;-56
2022/09/29 11:06:11;;;;;;;3.27;2.97;;;10.80;97.90;;;;;;4955970;28;20194;-56
2022/09/29 11:09:00;;;;;;;5.00;3.30;;;10.90;97.90;;;;;;4958568;28;20185;-55
2022/09/29 11:11:47;;;;;;;3.20;2.90;;;10.80;97.90;;;;;;4962771;28;20280;-59
2022/09/29 11:14:37;;;;;;;3.30;3.00;;;10.90;97.90;;;;;;4969451;28;20186;-55
2022/09/29 11:17:25;;;;;;;3.30;3.00;;;11.10;97.90;;;;;;4955750;28;20197;-57
2022/09/29 11:19:54;;;;;;;4.67;3.27;;;11.20;97.90;;;;;;4969239;28;20181;-56
2022/09/29 11:22:57;;;;;;;4.43;3.50;;;11.20;97.90;;;;;;4968306;28;20194;-56
2022/09/29 11:25:49;;;;;;;4.47;3.37;;;11.30;97.90;;;;;;4973984;28;20188;-55
2022/09/29 11:28:51;;;;;;;3.53;2.97;;;11.30;97.90;;;;;;4974025;28;20200;-55
2022/09/29 11:31:39;;;;;;;3.90;3.30;;;11.20;97.90;;;;;;4965516;28;20201;-58
2022/09/29 11:34:29;;;;;;;3.30;2.97;;;11.10;97.90;;;;;;4988764;28;20193;-58
2022/09/29 11:37:16;;;;;;;3.77;3.43;;;11.20;97.90;;;;;;4995862;28;20200;-54
2022/09/29 11:39:46;;;;;;;3.37;3.07;;;11.10;97.90;;;;;;5013928;28;20200;-56
2022/09/29 11:42:30;;;;;;;4.67;3.60;;;11.20;97.90;;;;;;5024240;28;20185;-55
2022/09/29 11:45:00;;;;;;;3.13;2.93;;;11.20;97.90;;;;;;4985317;28;20192;-55
2022/09/29 11:47:51;;;;;;;3.77;3.40;;;11.30;97.90;;;;;;4986828;28;20189;-57
2022/09/29 11:50:43;;;;;;;5.43;3.80;;;11.30;97.90;;;;;;5021920;28;20239;-55
2022/09/29 11:53:40;;;;;;;4.03;3.63;;;11.30;97.80;;;;;;4992388;28;20236;-53
2022/09/29 11:56:32;;;;;;;3.77;3.47;;;11.30;97.80;;;;;;5015447;28;20223;-57
2022/09/29 11:59:27;;;;;;;4.60;4.20;;;11.30;97.80;;;;;;4979345;28;20189;-54
2022/09/29 12:02:18;;;;;;;5.30;3.73;;;11.40;97.80;;;;;;4982549;28;20200;-56
2022/09/29 12:04:49;;;;;;;4.13;3.73;;;11.30;97.80;;;;;;5011958;28;20240;-58
2022/09/29 12:07:24;;;;;;;3.93;3.47;;;11.40;97.80;;;;;;5020055;28;20194;-55
2022/09/29 12:09:57;;;;;;;4.33;3.00;;;11.40;97.80;;;;;;5030230;28;20236;-57
2022/09/29 12:12:41;;;;;;;3.07;2.87;;;11.40;97.80;;;;;;4984078;28;20216;-56
2022/09/29 12:15:09;;;;;;;3.10;2.83;;;11.40;97.80;;;;;;5006882;28;20205;-55
2022/09/29 12:17:40;;;;;;;5.23;3.07;;;11.30;97.80;;;;;;5016388;28;20191;-54
2022/09/29 12:20:28;;;;;;;6.70;3.87;;;11.30;97.80;;;;;;4978656;28;20195;-56
2022/09/29 12:23:00;;;;;;;4.00;3.60;;;11.30;97.80;;;;;;4983267;28;20180;-55
2022/09/29 12:25:29;;;;;;;3.87;3.57;;;11.40;97.80;;;;;;4993628;28;20196;-57
2022/09/29 12:28:04;;;;;;;4.07;3.77;;;11.50;97.80;;;;;;4984064;28;20181;-57
2022/09/29 12:30:56;;;;;;;4.90;4.00;;;11.50;97.80;;;;;;4988251;28;20194;-56
2022/09/29 12:33:38;;;;;;;4.63;3.60;;;11.50;97.80;;;;;;4987826;28;20268;-55
2022/09/29 12:36:44;;;;;;;7.37;3.83;;;11.50;97.70;;;;;;4972938;28;20244;-56
2022/09/29 12:39:32;;;;;;;3.50;3.03;;;11.30;97.70;;;;;;4969222;28;20292;-55
2022/09/29 12:42:28;;;;;;;5.07;3.50;;;11.30;97.70;;;;;;4979269;28;20207;-58
2022/09/29 12:45:04;;;;;;;3.60;2.77;;;11.20;97.70;;;;;;4978573;28;20195;-56
2022/09/29 12:47:44;;;;;;;3.67;3.20;;;11.30;97.70;;;;;;4984722;28;20185;-56
2022/09/29 12:50:17;;;;;;;4.17;3.23;;;11.30;97.70;;;;;;4983997;28;20189;-56
2022/09/29 12:52:57;;;;;;;4.33;3.90;;;11.50;97.70;;;;;;5007534;28;20236;-56
2022/09/29 12:55:58;;;;;;;3.70;3.40;;;11.50;97.70;;;;;;4986604;28;20216;-57
2022/09/29 12:58:36;;;;;;;5.67;4.60;;;11.60;97.70;;;;;;4984122;28;20208;-57
2022/09/29 13:01:28;;;;;;;4.50;3.70;;;11.60;97.70;;;;;;5017279;28;20203;-55
2022/09/29 13:04:31;;;;;;;5.40;3.40;;;11.60;97.70;;;;;;4987115;28;20208;-55
2022/09/29 13:07:06;;;;;;;5.50;3.37;;;11.60;97.70;;;;;;5019602;28;20204;-55
2022/09/29 13:09:56;;;;;;;5.20;4.00;;;11.70;97.70;;;;;;5016036;28;20287;-57
2022/09/29 13:12:44;;;;;;;4.30;3.70;;;11.70;97.70;;;;;;5017935;28;20184;-56
2022/09/29 13:15:21;;;;;;;5.97;4.17;;;11.70;97.70;;;;;;4980627;28;20243;-56